createdAt,value
2018-04-24T00:01:38.780Z,94443.86
2018-04-24T00:04:06.389Z,94444.25
2018-04-24T00:06:34.060Z,94446.73
2018-04-24T00:09:01.682Z,94437.62
2018-04-24T00:11:29.351Z,94437.39
2018-04-24T00:13:56.989Z,94433.64
2018-04-24T00:16:24.618Z,94429.48
2018-04-24T00:18:52.240Z,94428.00
2018-04-24T00:21:19.974Z,94427.48
2018-04-24T00:23:47.663Z,94422.11
2018-04-24T00:26:15.272Z,94425.40
2018-04-24T00:28:42.891Z,94414.04
2018-04-24T00:31:10.511Z,94423.98
2018-04-24T00:33:38.176Z,94418.57
2018-04-24T00:36:06.162Z,94416.64
2018-04-24T00:38:33.749Z,94412.61
2018-04-24T00:41:01.392Z,94409.78
2018-04-24T00:43:28.996Z,94411.86
2018-04-24T00:45:56.738Z,94405.01
2018-04-24T00:48:24.316Z,94400.47
2018-04-24T00:50:51.980Z,94395.31
2018-04-24T00:53:40.601Z,94397.29
2018-04-24T00:56:08.203Z,94400.64
2018-04-24T00:58:35.998Z,94391.26
2018-04-24T01:01:03.602Z,94388.66
2018-04-24T01:03:31.259Z,94391.48
2018-04-24T01:05:58.930Z,94386.09
2018-04-24T01:08:26.603Z,94396.84
2018-04-24T01:10:54.215Z,94394.72
2018-04-24T01:13:21.822Z,94397.55
2018-04-24T01:15:49.453Z,94395.48
2018-04-24T01:18:17.138Z,94394.27
2018-04-24T01:20:44.784Z,94398.59
2018-04-24T01:23:12.376Z,94384.86
2018-04-24T01:25:40.018Z,94389.52
2018-04-24T01:28:07.631Z,94395.72
2018-04-24T01:30:35.296Z,94387.19
2018-04-24T01:33:02.883Z,94392.86
2018-04-24T01:35:30.541Z,94392.64
2018-04-24T01:37:58.201Z,94394.61
2018-04-24T01:40:25.804Z,94396.25
2018-04-24T01:42:53.430Z,94394.52
2018-04-24T01:45:21.032Z,94393.64
2018-04-24T01:47:49.281Z,94398.58
2018-04-24T01:50:17.335Z,94402.73
2018-04-24T01:52:44.938Z,94405.23
2018-04-24T01:55:12.589Z,94403.55
2018-04-24T01:57:40.231Z,94408.92
2018-04-24T02:00:07.881Z,94406.37
2018-04-24T02:02:35.580Z,94406.37
2018-04-24T02:05:03.183Z,94403.64
2018-04-24T02:07:30.772Z,94403.49
2018-04-24T02:09:58.454Z,94399.12
2018-04-24T02:12:26.053Z,94396.63
2018-04-24T02:14:53.659Z,94391.79
2018-04-24T02:17:21.304Z,94396.52
2018-04-24T02:19:49.010Z,94404.09
2018-04-24T02:22:16.635Z,94404.55
2018-04-24T02:24:44.305Z,94407.00
2018-04-24T02:27:11.999Z,94405.46
2018-04-24T02:29:39.612Z,94406.64
2018-04-24T02:32:07.275Z,94405.56
2018-04-24T02:34:35.255Z,94409.70
2018-04-24T02:37:02.935Z,94404.73
2018-04-24T02:39:30.590Z,94404.38
2018-04-24T02:41:58.207Z,94403.03
2018-04-24T02:44:25.862Z,94406.30
2018-04-24T02:46:53.475Z,94414.07
2018-04-24T02:49:21.115Z,94408.88
2018-04-24T02:51:48.739Z,94412.67
2018-04-24T02:54:16.353Z,94413.90
2018-04-24T02:56:43.994Z,94404.95
2018-04-24T02:59:11.593Z,94416.05
2018-04-24T03:01:39.253Z,94410.34
2018-04-24T03:04:07.048Z,94413.07
2018-04-24T03:06:34.676Z,94406.42
2018-04-24T03:09:02.367Z,94406.83
2018-04-24T03:11:30.015Z,94404.50
2018-04-24T03:13:57.651Z,94409.95
2018-04-24T03:16:25.304Z,94406.09
2018-04-24T03:18:52.904Z,94410.83
2018-04-24T03:21:20.624Z,94406.69
2018-04-24T03:23:48.413Z,94411.63
2018-04-24T03:26:16.066Z,94409.36
2018-04-24T03:28:43.776Z,94410.55
2018-04-24T03:31:11.367Z,94411.06
2018-04-24T03:33:39.025Z,94414.55
2018-04-24T03:36:06.666Z,94415.31
2018-04-24T03:38:34.345Z,94414.86
2018-04-24T03:41:01.946Z,94420.73
2018-04-24T03:43:29.600Z,94420.31
2018-04-24T03:45:57.277Z,94423.73
2018-04-24T03:48:24.873Z,94421.53
2018-04-24T03:50:52.487Z,94415.45
2018-04-24T03:53:20.126Z,94417.42
2018-04-24T03:55:47.746Z,94425.52
2018-04-24T03:58:15.397Z,94430.30
2018-04-24T04:00:43.020Z,94427.05
2018-04-24T04:03:10.664Z,94425.80
2018-04-24T04:05:38.327Z,94420.53
2018-04-24T04:08:05.963Z,94417.92
2018-04-24T04:10:33.644Z,94422.00
2018-04-24T04:13:01.253Z,94415.77
2018-04-24T04:15:28.967Z,94420.00
2018-04-24T04:18:08.505Z,94425.41
2018-04-24T04:20:47.839Z,94428.19
2018-04-24T04:23:27.093Z,94425.87
2018-04-24T04:25:55.440Z,94432.51
2018-04-24T04:28:23.060Z,94433.92
2018-04-24T04:30:50.725Z,94436.73
2018-04-24T04:33:18.389Z,94439.71
2018-04-24T04:35:46.045Z,94441.75
2018-04-24T04:38:13.694Z,94435.85
2018-04-24T04:40:41.362Z,94440.05
2018-04-24T04:43:09.027Z,94435.06
2018-04-24T04:45:36.698Z,94451.06
2018-04-24T04:48:04.400Z,94448.06
2018-04-24T04:50:32.049Z,94448.10
2018-04-24T04:52:59.749Z,94454.55
2018-04-24T04:55:27.364Z,94451.91
2018-04-24T04:57:54.970Z,94452.97
2018-04-24T05:00:22.681Z,94455.94
2018-04-24T05:02:50.296Z,94451.69
2018-04-24T05:05:18.801Z,94451.09
2018-04-24T05:07:46.379Z,94451.47
2018-04-24T05:10:14.040Z,94449.94
2018-04-24T05:12:41.649Z,94455.41
2018-04-24T05:15:09.241Z,94451.04
2018-04-24T05:17:36.929Z,94454.27
2018-04-24T05:20:04.585Z,94453.14
2018-04-24T05:22:32.184Z,94451.01
2018-04-24T05:24:59.867Z,94459.34
2018-04-24T05:27:27.464Z,94454.94
2018-04-24T05:29:55.111Z,94457.33
2018-04-24T05:32:22.777Z,94457.43
2018-04-24T05:34:50.407Z,94461.69
2018-04-24T05:37:18.008Z,94456.47
2018-04-24T05:39:45.671Z,94460.38
2018-04-24T05:42:13.295Z,94459.00
2018-04-24T05:44:40.902Z,94462.59
2018-04-24T05:47:08.552Z,94473.89
2018-04-24T05:49:36.235Z,94463.48
2018-04-24T05:52:03.917Z,94473.78
2018-04-24T05:54:31.552Z,94476.11
2018-04-24T05:56:59.149Z,94473.20
2018-04-24T05:59:26.791Z,94477.94
2018-04-24T06:01:54.400Z,94482.31
2018-04-24T06:04:22.049Z,94481.10
2018-04-24T06:06:49.707Z,94479.89
2018-04-24T06:09:17.309Z,94480.08
2018-04-24T06:11:44.962Z,94479.28
2018-04-24T06:14:12.698Z,94480.13
2018-04-24T06:16:40.383Z,94483.02
2018-04-24T06:19:08.079Z,94487.62
2018-04-24T06:21:35.709Z,94490.23
2018-04-24T06:24:03.367Z,94490.42
2018-04-24T06:26:30.978Z,94495.61
2018-04-24T06:28:58.590Z,94492.68
2018-04-24T06:31:26.239Z,94494.27
2018-04-24T06:33:53.893Z,94487.22
2018-04-24T06:36:21.501Z,94490.77
2018-04-24T06:38:49.169Z,94491.00
2018-04-24T06:41:16.803Z,94491.95
2018-04-24T06:43:44.388Z,94495.38
2018-04-24T06:46:12.079Z,94493.13
2018-04-24T06:48:39.711Z,94493.92
2018-04-24T06:51:07.339Z,94491.22
2018-04-24T06:53:34.937Z,94497.85
2018-04-24T06:56:02.597Z,94498.50
2018-04-24T06:58:30.237Z,94498.84
2018-04-24T07:00:57.834Z,94497.34
2018-04-24T07:03:25.478Z,94497.01
2018-04-24T07:05:53.146Z,94498.27
2018-04-24T07:08:20.736Z,94496.27
2018-04-24T07:10:48.366Z,94496.42
2018-04-24T07:13:16.084Z,94498.22
2018-04-24T07:15:44.692Z,94499.73
2018-04-24T07:18:13.338Z,94502.25
2018-04-24T07:20:41.002Z,94497.59
2018-04-24T07:23:08.674Z,94500.66
2018-04-24T07:25:36.346Z,94498.70
2018-04-24T07:28:03.967Z,94500.66
2018-04-24T07:30:31.572Z,94504.03
2018-04-24T07:32:59.310Z,94501.08
2018-04-24T07:35:27.004Z,94503.13
2018-04-24T07:37:54.710Z,94499.69
2018-04-24T07:40:22.347Z,94504.77
2018-04-24T07:42:50.050Z,94506.11
2018-04-24T07:45:17.678Z,94508.67
2018-04-24T07:47:45.390Z,94510.13
2018-04-24T07:50:13.094Z,94510.50
2018-04-24T07:52:40.775Z,94509.03
2018-04-24T07:55:08.451Z,94516.38
2018-04-24T07:57:36.128Z,94509.02
2018-04-24T08:00:03.921Z,94512.99
2018-04-24T08:02:31.577Z,94513.59
2018-04-24T08:05:00.121Z,94511.32
2018-04-24T08:07:27.860Z,94512.84
2018-04-24T08:09:55.619Z,94508.00
2018-04-24T08:12:23.308Z,94514.61
2018-04-24T08:14:51.035Z,94504.83
2018-04-24T08:17:18.722Z,94516.61
2018-04-24T08:19:46.399Z,94515.20
2018-04-24T08:22:14.064Z,94504.67
2018-04-24T08:24:41.677Z,94505.34
2018-04-24T08:27:09.383Z,94502.84
2018-04-24T08:29:36.984Z,94501.38
2018-04-24T08:32:04.645Z,94501.03
2018-04-24T08:34:32.722Z,94500.18
2018-04-24T08:37:00.568Z,94500.64
2018-04-24T08:39:28.287Z,94502.86
2018-04-24T08:41:56.138Z,94504.09
2018-04-24T08:44:23.878Z,94502.16
2018-04-24T08:46:51.545Z,94503.45
2018-04-24T08:49:19.351Z,94493.25
2018-04-24T08:51:46.965Z,94491.67
2018-04-24T08:54:14.764Z,94494.45
2018-04-24T08:56:42.519Z,94492.92
2018-04-24T08:59:10.140Z,94500.69
2018-04-24T09:01:38.007Z,94490.67
2018-04-24T09:04:05.709Z,94496.88
2018-04-24T09:06:33.718Z,94492.19
2018-04-24T09:09:01.395Z,94496.15
2018-04-24T09:11:29.616Z,94490.17
2018-04-24T09:13:57.333Z,94490.48
2018-04-24T09:16:24.949Z,94485.69
2018-04-24T09:18:52.908Z,94482.20
2018-04-24T09:21:21.477Z,94486.23
2018-04-24T09:23:49.163Z,94479.94
2018-04-24T09:26:17.575Z,94479.76
2018-04-24T09:28:45.236Z,94479.88
2018-04-24T09:31:12.925Z,94476.38
2018-04-24T09:33:40.642Z,94472.15
2018-04-24T09:36:08.677Z,94462.77
2018-04-24T09:38:36.287Z,94460.53
2018-04-24T09:41:03.987Z,94462.31
2018-04-24T09:43:31.652Z,94464.55
2018-04-24T09:45:59.310Z,94459.76
2018-04-24T09:48:27.067Z,94462.64
2018-04-24T09:50:55.487Z,94461.78
2018-04-24T09:53:23.162Z,94460.78
2018-04-24T09:55:50.879Z,94456.47
2018-04-24T09:58:18.587Z,94457.91
2018-04-24T10:00:46.235Z,94463.91
2018-04-24T10:03:13.892Z,94458.13
2018-04-24T10:05:41.511Z,94463.19
2018-04-24T10:08:09.170Z,94459.34
2018-04-24T10:10:36.829Z,94462.27
2018-04-24T10:13:04.529Z,94456.23
2018-04-24T10:15:32.180Z,94451.42
2018-04-24T10:17:59.819Z,94455.81
2018-04-24T10:20:27.800Z,94453.02
2018-04-24T10:22:55.397Z,94442.52
2018-04-24T10:25:23.064Z,94450.90
2018-04-24T10:27:50.673Z,94449.00
2018-04-24T10:30:18.329Z,94447.77
2018-04-24T10:32:45.992Z,94441.69
2018-04-24T10:35:13.651Z,94449.31
2018-04-24T10:37:41.353Z,94448.80
2018-04-24T10:40:09.102Z,94452.66
2018-04-24T10:42:36.769Z,94440.19
2018-04-24T10:45:04.574Z,94443.26
2018-04-24T10:47:32.198Z,94438.30
2018-04-24T10:50:00.079Z,94435.33
2018-04-24T10:52:27.734Z,94423.63
2018-04-24T10:54:55.348Z,94421.94
2018-04-24T10:57:23.074Z,94420.98
2018-04-24T10:59:50.693Z,94417.30
2018-04-24T11:02:18.387Z,94421.89
2018-04-24T11:04:46.137Z,94415.28
2018-04-24T11:07:13.724Z,94418.99
2018-04-24T11:09:41.383Z,94415.56
2018-04-24T11:12:09.037Z,94420.36
2018-04-24T11:14:36.691Z,94417.15
2018-04-24T11:17:04.405Z,94413.47
2018-04-24T11:19:32.203Z,94409.34
2018-04-24T11:21:59.805Z,94409.55
2018-04-24T11:24:27.470Z,94398.70
2018-04-24T11:26:55.087Z,94396.77
2018-04-24T11:29:22.807Z,94389.59
2018-04-24T11:31:50.914Z,94380.20
2018-04-24T11:34:18.554Z,94375.87
2018-04-24T11:36:46.224Z,94366.05
2018-04-24T11:39:13.822Z,94361.27
2018-04-24T11:41:41.523Z,94354.94
2018-04-24T11:44:09.549Z,94352.66
2018-04-24T11:46:37.172Z,94353.45
2018-04-24T11:49:04.869Z,94336.55
2018-04-24T11:51:32.849Z,94345.42
2018-04-24T11:54:00.460Z,94337.19
2018-04-24T11:56:28.118Z,94333.27
2018-04-24T11:58:55.709Z,94331.59
2018-04-24T12:01:23.410Z,94324.23
2018-04-24T12:03:51.051Z,94320.95
2018-04-24T12:06:18.651Z,94314.63
2018-04-24T12:08:46.307Z,94313.53
2018-04-24T12:11:13.904Z,94313.17
2018-04-24T12:13:41.519Z,94314.33
2018-04-24T12:16:09.201Z,94312.91
2018-04-24T12:18:36.861Z,94311.41
2018-04-24T12:21:04.520Z,94312.74
2018-04-24T12:23:32.184Z,94306.34
2018-04-24T12:25:59.787Z,94299.44
2018-04-24T12:28:27.424Z,94291.20
2018-04-24T12:30:55.125Z,94283.81
2018-04-24T12:33:22.733Z,94280.11
2018-04-24T12:35:50.413Z,94280.31
2018-04-24T12:38:18.084Z,94276.21
2018-04-24T12:40:45.691Z,94273.25
2018-04-24T12:43:13.443Z,94275.94
2018-04-24T12:45:41.112Z,94272.83
2018-04-24T12:48:08.795Z,94267.05
2018-04-24T12:50:37.329Z,94255.17
2018-04-24T12:53:04.921Z,94260.05
2018-04-24T12:55:32.594Z,94249.15
2018-04-24T12:58:00.270Z,94251.80
2018-04-24T13:00:27.959Z,94250.23
2018-04-24T13:02:55.667Z,94241.12
2018-04-24T13:05:23.288Z,94235.12
2018-04-24T13:07:50.966Z,94232.86
2018-04-24T13:10:19.296Z,94231.66
2018-04-24T13:12:46.904Z,94220.16
2018-04-24T13:15:14.634Z,94214.87
2018-04-24T13:17:42.345Z,94207.08
2018-04-24T13:20:10.976Z,94211.34
2018-04-24T13:22:38.636Z,94204.69
2018-04-24T13:25:06.414Z,94202.80
2018-04-24T13:27:34.124Z,94201.42
2018-04-24T13:30:01.842Z,94194.20
2018-04-24T13:32:29.521Z,94184.87
2018-04-24T13:34:57.161Z,94176.59
2018-04-24T13:37:24.839Z,94173.13
2018-04-24T13:39:52.472Z,94166.61
2018-04-24T13:42:20.196Z,94159.97
2018-04-24T13:44:48.057Z,94163.11
2018-04-24T13:47:15.757Z,94158.70
2018-04-24T13:49:43.396Z,94160.77
2018-04-24T13:52:11.085Z,94161.95
2018-04-24T13:54:38.729Z,94160.77
2018-04-24T13:57:06.414Z,94162.02
2018-04-24T13:59:34.089Z,94157.55
2018-04-24T14:02:01.758Z,94149.80
2018-04-24T14:04:29.459Z,94148.81
2018-04-24T14:06:57.098Z,94146.03
2018-04-24T14:09:24.762Z,94142.97
2018-04-24T14:11:52.482Z,94142.07
2018-04-24T14:14:20.126Z,94138.77
2018-04-24T14:16:47.817Z,94143.89
2018-04-24T14:19:15.459Z,94133.38
2018-04-24T14:21:43.212Z,94136.77
2018-04-24T14:24:10.861Z,94133.55
2018-04-24T14:26:38.792Z,94124.72
2018-04-24T14:29:06.716Z,94120.70
2018-04-24T14:31:34.324Z,94119.83
2018-04-24T14:34:02.016Z,94127.55
2018-04-24T14:36:29.759Z,94117.11
2018-04-24T14:38:57.660Z,94122.36
2018-04-24T14:41:25.259Z,94122.48
2018-04-24T14:43:52.919Z,94120.62
2018-04-24T14:46:20.556Z,94120.19
2018-04-24T14:48:48.194Z,94116.28
2018-04-24T14:51:15.873Z,94115.09
2018-04-24T14:53:43.533Z,94113.84
2018-04-24T14:56:11.207Z,94105.47
2018-04-24T14:58:38.870Z,94102.98
2018-04-24T15:01:07.037Z,94103.48
2018-04-24T15:03:34.775Z,94105.30
2018-04-24T15:06:02.421Z,94109.95
2018-04-24T15:08:30.129Z,94107.20
2018-04-24T15:10:57.821Z,94103.08
2018-04-24T15:13:26.441Z,94108.69
2018-04-24T15:15:54.133Z,94105.80
2018-04-24T15:18:21.893Z,94102.41
2018-04-24T15:20:49.546Z,94102.53
2018-04-24T15:23:17.159Z,94098.08
2018-04-24T15:25:44.858Z,94108.46
2018-04-24T15:28:12.485Z,94096.52
2018-04-24T15:30:40.167Z,94094.17
2018-04-24T15:33:07.817Z,94095.13
2018-04-24T15:35:35.424Z,94098.71
2018-04-24T15:38:03.050Z,94098.56
2018-04-24T15:40:30.735Z,94099.83
2018-04-24T15:42:58.368Z,94100.36
2018-04-24T15:45:26.030Z,94097.55
2018-04-24T15:47:53.633Z,94098.91
2018-04-24T15:50:22.191Z,94097.23
2018-04-24T15:52:49.778Z,94099.66
2018-04-24T15:55:18.254Z,94095.63
2018-04-24T15:57:46.025Z,94088.63
2018-04-24T16:00:13.667Z,94095.36
2018-04-24T16:02:41.318Z,94095.98
2018-04-24T16:05:08.969Z,94099.12
2018-04-24T16:07:36.753Z,94094.38
2018-04-24T16:10:04.508Z,94089.88
2018-04-24T16:12:32.158Z,94097.94
2018-04-24T16:14:59.807Z,94089.05
2018-04-24T16:17:27.490Z,94091.30
2018-04-24T16:19:55.204Z,94098.55
2018-04-24T16:22:22.882Z,94096.89
2018-04-24T16:24:50.519Z,94099.12
2018-04-24T16:27:18.198Z,94097.42
2018-04-24T16:29:45.974Z,94098.42
2018-04-24T16:32:13.622Z,94101.80
2018-04-24T16:34:41.280Z,94093.47
2018-04-24T16:37:08.956Z,94092.30
2018-04-24T16:39:36.565Z,94087.77
2018-04-24T16:42:04.239Z,94095.42
2018-04-24T16:44:31.854Z,94097.53
2018-04-24T16:46:59.514Z,94100.44
2018-04-24T16:49:27.169Z,94094.47
2018-04-24T16:51:54.877Z,94102.31
2018-04-24T16:54:22.574Z,94091.02
2018-04-24T16:56:50.214Z,94100.22
2018-04-24T16:59:17.799Z,94096.06
2018-04-24T17:01:46.679Z,94096.27
2018-04-24T17:04:14.340Z,94097.47
2018-04-24T17:06:42.010Z,94095.66
2018-04-24T17:09:09.677Z,94098.78
2018-04-24T17:11:37.334Z,94095.01
2018-04-24T17:14:04.994Z,94095.28
2018-04-24T17:16:32.702Z,94093.17
2018-04-24T17:19:00.386Z,94102.25
2018-04-24T17:21:28.024Z,94099.23
2018-04-24T17:23:55.738Z,94100.31
2018-04-24T17:26:23.390Z,94102.69
2018-04-24T17:28:51.017Z,94100.19
2018-04-24T17:31:18.748Z,94104.16
2018-04-24T17:33:46.599Z,94105.88
2018-04-24T17:36:14.231Z,94113.62
2018-04-24T17:38:42.069Z,94117.29
2018-04-24T17:41:10.671Z,94115.17
2018-04-24T17:43:38.348Z,94120.30
2018-04-24T17:46:05.955Z,94121.09
2018-04-24T17:48:33.568Z,94123.97
2018-04-24T17:51:02.703Z,94128.57
2018-04-24T17:53:30.314Z,94129.75
2018-04-24T17:55:58.057Z,94128.16
2018-04-24T17:58:25.729Z,94131.58
2018-04-24T18:00:53.437Z,94129.56
2018-04-24T18:03:22.364Z,94135.06
2018-04-24T18:05:50.190Z,94136.52
2018-04-24T18:08:18.014Z,94140.98
2018-04-24T18:10:47.021Z,94147.19
2018-04-24T18:13:15.005Z,94145.17
2018-04-24T18:15:42.774Z,94151.20
2018-04-24T18:18:10.487Z,94147.89
2018-04-24T18:20:38.133Z,94152.34
2018-04-24T18:23:05.873Z,94152.77
2018-04-24T18:25:33.595Z,94151.30
2018-04-24T18:28:01.891Z,94153.87
2018-04-24T18:30:29.602Z,94165.50
2018-04-24T18:33:01.748Z,94162.27
2018-04-24T18:35:29.773Z,94163.03
2018-04-24T18:37:58.544Z,94164.00
2018-04-24T18:40:26.297Z,94166.85
2018-04-24T18:42:54.826Z,94172.91
2018-04-24T18:45:22.983Z,94174.97
2018-04-24T18:47:50.833Z,94174.48
2018-04-24T18:50:18.607Z,94174.48
2018-04-24T18:52:48.326Z,94182.97
2018-04-24T18:55:16.171Z,94177.02
2018-04-24T18:57:43.884Z,94174.64
2018-04-24T19:00:11.810Z,94178.33
2018-04-24T19:02:40.467Z,94179.95
2018-04-24T19:05:08.180Z,94185.42
2018-04-24T19:07:36.051Z,94179.77
2018-04-24T19:10:03.874Z,94184.77
2018-04-24T19:12:33.578Z,94183.58
2018-04-24T19:15:02.572Z,94183.90
2018-04-24T19:17:34.088Z,94183.56
2018-04-24T19:20:03.105Z,94187.65
2018-04-24T19:22:31.158Z,94193.70
2018-04-24T19:25:05.338Z,94191.64
2018-04-24T19:27:33.151Z,94196.20
2018-04-24T19:30:00.954Z,94206.65
2018-04-24T19:32:33.129Z,94203.66
2018-04-24T19:35:00.856Z,94205.09
2018-04-24T19:37:28.571Z,94213.78
2018-04-24T19:40:01.874Z,94210.64
2018-04-24T19:42:29.699Z,94207.53
2018-04-24T19:44:57.451Z,94210.52
2018-04-24T19:47:25.215Z,94215.62
2018-04-24T19:49:58.467Z,94209.20
2018-04-24T19:52:26.245Z,94216.95
2018-04-24T19:54:59.536Z,94217.05
2018-04-24T19:57:27.414Z,94213.39
2018-04-24T19:59:55.192Z,94219.94
2018-04-24T20:02:22.962Z,94213.15
2018-04-24T20:04:50.709Z,94216.08
2018-04-24T20:07:18.960Z,94216.53
2018-04-24T20:09:47.466Z,94207.41
2018-04-24T20:12:15.178Z,94217.72
2018-04-24T20:14:43.094Z,94219.80
2018-04-24T20:17:10.866Z,94219.79
2018-04-24T20:19:38.491Z,94221.38
2018-04-24T20:22:06.217Z,94212.52
2018-04-24T20:24:33.899Z,94219.65
2018-04-24T20:27:01.596Z,94216.24
2018-04-24T20:29:29.317Z,94220.42
2018-04-24T20:31:58.158Z,94222.52
2018-04-24T20:34:25.977Z,94214.08
2018-04-24T20:36:53.803Z,94220.91
2018-04-24T20:39:21.587Z,94210.84
2018-04-24T20:41:49.333Z,94212.45
2018-04-24T20:44:17.094Z,94216.06
2018-04-24T20:46:44.809Z,94214.94
2018-04-24T20:49:12.442Z,94212.88
2018-04-24T20:51:40.085Z,94212.21
2018-04-24T20:54:08.049Z,94211.07
2018-04-24T20:56:35.747Z,94213.73
2018-04-24T20:59:03.488Z,94204.86
2018-04-24T21:01:31.124Z,94215.66
2018-04-24T21:03:58.847Z,94212.02
2018-04-24T21:06:27.739Z,94211.16
2018-04-24T21:08:55.435Z,94211.91
2018-04-24T21:11:23.148Z,94214.08
2018-04-24T21:13:50.784Z,94211.78
2018-04-24T21:16:18.378Z,94217.63
2018-04-24T21:18:46.048Z,94210.09
2018-04-24T21:21:13.689Z,94216.63
2018-04-24T21:23:41.351Z,94209.02
2018-04-24T21:26:09.038Z,94208.00
2018-04-24T21:28:36.675Z,94207.81
2018-04-24T21:31:04.322Z,94206.70
2018-04-24T21:33:32.436Z,94209.08
2018-04-24T21:36:00.091Z,94212.37
2018-04-24T21:38:27.726Z,94211.47
2018-04-24T21:40:55.336Z,94206.12
2018-04-24T21:43:22.985Z,94201.64
2018-04-24T21:45:50.612Z,94205.47
2018-04-24T21:48:18.207Z,94201.79
2018-04-24T21:50:45.876Z,94202.50
2018-04-24T21:53:13.535Z,94202.05
2018-04-24T21:55:41.146Z,94197.66
2018-04-24T21:58:08.817Z,94196.75
2018-04-24T22:00:36.472Z,94197.09
2018-04-24T22:03:04.073Z,94200.11
2018-04-24T22:05:31.666Z,94198.70
2018-04-24T22:07:59.317Z,94195.95
2018-04-24T22:10:26.917Z,94194.20
2018-04-24T22:12:54.576Z,94191.56
2018-04-24T22:15:22.218Z,94195.55
2018-04-24T22:17:49.894Z,94198.31
2018-04-24T22:20:17.518Z,94192.52
2018-04-24T22:22:45.146Z,94186.19
2018-04-24T22:25:12.752Z,94184.84
2018-04-24T22:27:41.326Z,94188.34
2018-04-24T22:30:09.004Z,94184.11
2018-04-24T22:32:36.625Z,94185.17
2018-04-24T22:35:04.280Z,94182.23
2018-04-24T22:37:31.897Z,94178.05
2018-04-24T22:39:59.533Z,94172.23
2018-04-24T22:42:27.161Z,94180.79
2018-04-24T22:44:54.820Z,94173.87
2018-04-24T22:47:22.482Z,94180.82
2018-04-24T22:49:50.121Z,94175.70
2018-04-24T22:52:17.735Z,94176.02
2018-04-24T22:54:45.412Z,94176.48
2018-04-24T22:57:12.996Z,94177.27
2018-04-24T22:59:40.654Z,94173.79
2018-04-24T23:02:09.157Z,94174.11
2018-04-24T23:04:36.864Z,94174.59
2018-04-24T23:07:04.483Z,94177.08
2018-04-24T23:09:32.167Z,94174.30
2018-04-24T23:12:11.574Z,94173.45
2018-04-24T23:14:50.842Z,94171.98
2018-04-24T23:17:30.044Z,94172.55
2018-04-24T23:20:09.338Z,94174.95
2018-04-24T23:22:37.049Z,94175.08
2018-04-24T23:25:04.648Z,94169.61
2018-04-24T23:27:32.382Z,94171.80
2018-04-24T23:30:00.000Z,94167.84
2018-04-24T23:32:27.649Z,94172.56
2018-04-24T23:34:55.319Z,94170.67
2018-04-24T23:37:22.946Z,94169.77
2018-04-24T23:39:50.676Z,94168.41
2018-04-24T23:42:18.398Z,94162.59
2018-04-24T23:44:46.024Z,94165.41
2018-04-24T23:47:13.693Z,94160.27
2018-04-24T23:49:41.322Z,94163.81
2018-04-24T23:52:08.976Z,94158.45
2018-04-24T23:54:36.547Z,94155.70
2018-04-24T23:57:04.206Z,94157.27
2018-04-24T23:59:31.868Z,94153.19
